createdAt,value
2018-01-28T00:01:49.696Z,12.52
2018-01-28T00:04:16.566Z,11.30
2018-01-28T00:06:43.444Z,13.03
2018-01-28T00:09:10.293Z,14.03
2018-01-28T00:11:37.201Z,11.98
2018-01-28T00:14:04.097Z,11.73
2018-01-28T00:16:31.212Z,12.88
2018-01-28T00:18:58.073Z,10.97
2018-01-28T00:21:24.912Z,10.73
2018-01-28T00:23:51.868Z,14.20
2018-01-28T00:26:18.728Z,11.80
2018-01-28T00:28:45.707Z,11.70
2018-01-28T00:31:12.626Z,16.42
2018-01-28T00:33:39.509Z,13.68
2018-01-28T00:36:06.376Z,10.88
2018-01-28T00:38:33.243Z,12.05
2018-01-28T00:41:00.862Z,16.17
2018-01-28T00:43:27.772Z,15.75
2018-01-28T00:45:55.390Z,15.00
2018-01-28T00:48:22.282Z,12.80
2018-01-28T00:50:49.144Z,11.90
2018-01-28T00:53:16.012Z,14.45
2018-01-28T00:55:42.863Z,12.95
2018-01-28T00:58:09.766Z,14.48
2018-01-28T01:00:36.620Z,14.80
2018-01-28T01:03:03.501Z,15.65
2018-01-28T01:05:30.417Z,16.55
2018-01-28T01:07:57.313Z,19.62
2018-01-28T01:10:24.222Z,16.73
2018-01-28T01:12:51.098Z,17.70
2018-01-28T01:15:17.961Z,20.20
2018-01-28T01:17:44.869Z,21.98
2018-01-28T01:20:11.740Z,23.65
2018-01-28T01:22:38.630Z,23.20
2018-01-28T01:25:05.517Z,25.90
2018-01-28T01:27:32.441Z,24.35
2018-01-28T01:29:59.292Z,21.67
2018-01-28T01:32:26.219Z,24.23
2018-01-28T01:34:53.117Z,29.37
2018-01-28T01:37:19.980Z,25.85
2018-01-28T01:39:46.893Z,23.23
2018-01-28T01:42:13.740Z,22.77
2018-01-28T01:44:40.659Z,25.58
2018-01-28T01:47:07.540Z,25.42
2018-01-28T01:49:34.408Z,26.62
2018-01-28T01:52:01.288Z,23.05
2018-01-28T01:54:28.169Z,23.48
2018-01-28T01:56:55.044Z,22.42
2018-01-28T01:59:21.997Z,23.17
2018-01-28T02:01:48.917Z,22.87
2018-01-28T02:04:15.829Z,25.70
2018-01-28T02:06:42.721Z,26.15
2018-01-28T02:09:09.584Z,22.90
2018-01-28T02:11:36.497Z,24.55
2018-01-28T02:14:03.389Z,27.35
2018-01-28T02:16:30.769Z,26.00
2018-01-28T02:18:57.652Z,26.20
2018-01-28T02:21:24.541Z,25.75
2018-01-28T02:23:51.490Z,24.23
2018-01-28T02:26:18.384Z,25.73
2018-01-28T02:28:45.244Z,25.23
2018-01-28T02:31:12.104Z,23.60
2018-01-28T02:33:39.045Z,23.25
2018-01-28T02:36:05.933Z,22.52
2018-01-28T02:38:32.796Z,22.73
2018-01-28T02:40:59.697Z,22.07
2018-01-28T02:43:26.686Z,22.17
2018-01-28T02:45:53.585Z,23.23
2018-01-28T02:48:20.514Z,24.37
2018-01-28T02:50:47.418Z,23.80
2018-01-28T02:53:14.317Z,23.80
2018-01-28T02:55:41.182Z,21.95
2018-01-28T02:58:08.037Z,21.35
2018-01-28T03:00:34.941Z,19.73
2018-01-28T03:03:01.873Z,19.40
2018-01-28T03:05:28.727Z,20.98
2018-01-28T03:07:55.637Z,19.40
2018-01-28T03:10:22.480Z,20.80
2018-01-28T03:12:49.363Z,19.23
2018-01-28T03:15:16.265Z,18.42
2018-01-28T03:17:43.157Z,19.20
2018-01-28T03:20:10.089Z,19.83
2018-01-28T03:22:36.997Z,18.60
2018-01-28T03:25:03.864Z,19.90
2018-01-28T03:27:30.817Z,26.98
2018-01-28T03:29:57.973Z,20.40
2018-01-28T03:32:25.121Z,20.20
2018-01-28T03:34:52.035Z,19.30
2018-01-28T03:37:18.896Z,21.25
2018-01-28T03:39:45.797Z,19.60
2018-01-28T03:42:12.661Z,19.40
2018-01-28T03:44:39.854Z,19.50
2018-01-28T03:47:06.736Z,18.90
2018-01-28T03:49:33.624Z,18.15
2018-01-28T03:52:00.509Z,18.25
2018-01-28T03:54:27.457Z,17.90
2018-01-28T03:56:54.350Z,18.58
2018-01-28T03:59:21.237Z,20.52
2018-01-28T04:01:48.113Z,18.20
2018-01-28T04:04:14.984Z,19.80
2018-01-28T04:06:41.857Z,18.23
2018-01-28T04:09:08.736Z,18.95
2018-01-28T04:11:35.632Z,19.10
2018-01-28T04:14:02.476Z,18.27
2018-01-28T04:16:29.365Z,19.58
2018-01-28T04:18:56.334Z,21.10
2018-01-28T04:21:23.196Z,19.70
2018-01-28T04:23:50.041Z,19.67
2018-01-28T04:26:16.892Z,19.98
2018-01-28T04:28:43.797Z,19.52
2018-01-28T04:31:11.062Z,20.52
2018-01-28T04:33:37.954Z,19.70
2018-01-28T04:36:04.816Z,21.77
2018-01-28T04:38:31.753Z,20.27
2018-01-28T04:40:58.612Z,20.88
2018-01-28T04:43:25.490Z,21.45
2018-01-28T04:45:52.374Z,22.13
2018-01-28T04:48:19.257Z,21.30
2018-01-28T04:50:46.137Z,21.80
2018-01-28T04:53:13.026Z,23.15
2018-01-28T04:55:39.896Z,24.10
2018-01-28T04:58:06.797Z,23.45
2018-01-28T05:00:33.680Z,24.85
2018-01-28T05:03:00.584Z,23.27
2018-01-28T05:05:27.484Z,22.25
2018-01-28T05:07:54.328Z,24.15
2018-01-28T05:10:21.184Z,28.17
2018-01-28T05:12:48.070Z,24.37
2018-01-28T05:15:14.981Z,27.00
2018-01-28T05:17:41.834Z,25.10
2018-01-28T05:20:08.725Z,26.42
2018-01-28T05:22:35.658Z,29.77
2018-01-28T05:25:02.527Z,25.85
2018-01-28T05:27:29.388Z,26.85
2018-01-28T05:29:56.244Z,28.75
2018-01-28T05:32:23.162Z,25.73
2018-01-28T05:34:50.045Z,27.65
2018-01-28T05:37:16.910Z,28.92
2018-01-28T05:39:43.835Z,27.02
2018-01-28T05:42:10.986Z,25.40
2018-01-28T05:44:37.881Z,33.22
2018-01-28T05:47:04.766Z,27.67
2018-01-28T05:49:31.660Z,28.40
2018-01-28T05:51:58.534Z,28.83
2018-01-28T05:54:25.453Z,30.83
2018-01-28T05:56:52.296Z,28.43
2018-01-28T05:59:19.161Z,30.33
2018-01-28T06:01:46.008Z,28.85
2018-01-28T06:04:12.899Z,28.70
2018-01-28T06:06:39.794Z,27.73
2018-01-28T06:09:06.697Z,27.62
2018-01-28T06:11:33.584Z,31.45
2018-01-28T06:14:00.448Z,30.80
2018-01-28T06:16:27.308Z,29.50
2018-01-28T06:18:54.186Z,26.45
2018-01-28T06:21:21.078Z,29.67
2018-01-28T06:23:47.974Z,27.08
2018-01-28T06:26:14.857Z,27.77
2018-01-28T06:28:41.761Z,31.55
2018-01-28T06:31:08.650Z,31.70
2018-01-28T06:33:35.503Z,34.47
2018-01-28T06:36:02.398Z,34.78
2018-01-28T06:38:29.601Z,32.78
2018-01-28T06:40:56.516Z,36.33
2018-01-28T06:43:23.411Z,34.70
2018-01-28T06:45:50.261Z,31.87
2018-01-28T06:48:17.165Z,27.52
2018-01-28T06:50:44.030Z,36.70
2018-01-28T06:53:10.918Z,31.12
2018-01-28T06:55:37.805Z,36.85
2018-01-28T06:58:04.724Z,31.33
2018-01-28T07:00:31.568Z,31.25
2018-01-28T07:02:58.428Z,36.93
2018-01-28T07:05:25.292Z,31.55
2018-01-28T07:07:52.166Z,32.17
2018-01-28T07:10:19.069Z,29.55
2018-01-28T07:12:45.918Z,30.02
2018-01-28T07:15:12.798Z,30.08
2018-01-28T07:17:39.722Z,29.80
2018-01-28T07:20:06.692Z,30.48
2018-01-28T07:22:34.389Z,30.85
2018-01-28T07:25:01.275Z,27.10
2018-01-28T07:27:28.164Z,30.27
2018-01-28T07:29:55.008Z,33.40
2018-01-28T07:32:21.865Z,24.40
2018-01-28T07:34:48.857Z,30.80
2018-01-28T07:37:15.730Z,34.47
2018-01-28T07:39:42.935Z,30.27
2018-01-28T07:42:09.810Z,31.70
2018-01-28T07:44:37.033Z,33.53
2018-01-28T07:47:03.892Z,31.03
2018-01-28T07:49:30.740Z,30.88
2018-01-28T07:51:58.770Z,24.90
2018-01-28T07:54:25.650Z,36.10
2018-01-28T07:56:52.519Z,35.28
2018-01-28T07:59:19.394Z,31.52
2018-01-28T08:01:46.264Z,34.65
2018-01-28T08:04:13.192Z,31.95
2018-01-28T08:06:40.078Z,36.63
2018-01-28T08:09:06.965Z,40.45
2018-01-28T08:11:33.861Z,33.03
2018-01-28T08:14:01.480Z,32.90
2018-01-28T08:16:28.555Z,31.30
2018-01-28T08:18:55.809Z,31.27
2018-01-28T08:21:22.686Z,29.55
2018-01-28T08:23:49.560Z,34.40
2018-01-28T08:26:16.497Z,28.55
2018-01-28T08:28:43.372Z,33.53
2018-01-28T08:31:10.253Z,30.20
2018-01-28T08:33:37.131Z,27.62
2018-01-28T08:36:04.024Z,29.60
2018-01-28T08:38:30.909Z,24.37
2018-01-28T08:40:58.097Z,29.23
2018-01-28T08:43:25.034Z,29.75
2018-01-28T08:45:51.896Z,36.00
2018-01-28T08:48:18.772Z,29.70
2018-01-28T08:50:45.650Z,30.00
2018-01-28T08:53:12.500Z,28.80
2018-01-28T08:55:39.352Z,27.33
2018-01-28T08:58:06.246Z,27.83
2018-01-28T09:00:33.166Z,24.70
2018-01-28T09:03:00.062Z,26.95
2018-01-28T09:05:26.928Z,23.05
2018-01-28T09:07:53.776Z,30.98
2018-01-28T09:10:20.668Z,26.27
2018-01-28T09:12:47.893Z,28.95
2018-01-28T09:15:14.777Z,26.23
2018-01-28T09:17:41.660Z,29.73
2018-01-28T09:20:08.516Z,28.52
2018-01-28T09:22:35.397Z,26.90
2018-01-28T09:25:02.308Z,26.93
2018-01-28T09:27:29.233Z,24.75
2018-01-28T09:29:56.114Z,27.25
2018-01-28T09:32:23.247Z,27.58
2018-01-28T09:34:50.162Z,31.60
2018-01-28T09:37:17.059Z,21.90
2018-01-28T09:39:43.924Z,25.95
2018-01-28T09:42:10.776Z,28.52
2018-01-28T09:44:37.649Z,23.08
2018-01-28T09:47:04.522Z,27.25
2018-01-28T09:49:31.388Z,26.60
2018-01-28T09:51:58.335Z,25.15
2018-01-28T09:54:25.180Z,28.80
2018-01-28T09:56:52.105Z,30.33
2018-01-28T09:59:18.975Z,25.88
2018-01-28T10:01:45.853Z,24.73
2018-01-28T10:04:12.768Z,32.42
2018-01-28T10:06:39.617Z,26.03
2018-01-28T10:09:06.510Z,23.65
2018-01-28T10:11:33.407Z,28.52
2018-01-28T10:14:00.286Z,27.37
2018-01-28T10:16:27.185Z,29.65
2018-01-28T10:18:54.041Z,29.12
2018-01-28T10:21:20.954Z,23.30
2018-01-28T10:23:47.838Z,32.45
2018-01-28T10:26:14.704Z,52.30
2018-01-28T10:28:41.547Z,31.25
2018-01-28T10:31:08.402Z,30.67
2018-01-28T10:33:35.260Z,25.50
2018-01-28T10:36:02.141Z,28.17
2018-01-28T10:38:29.036Z,23.15
2018-01-28T10:40:55.900Z,30.50
2018-01-28T10:43:22.782Z,24.23
2018-01-28T10:45:49.646Z,23.10
2018-01-28T10:48:16.640Z,26.73
2018-01-28T10:50:43.534Z,27.40
2018-01-28T10:53:10.392Z,24.65
2018-01-28T10:55:37.252Z,20.55
2018-01-28T10:58:04.142Z,24.10
2018-01-28T11:00:31.045Z,28.25
2018-01-28T11:02:58.193Z,22.98
2018-01-28T11:05:25.066Z,27.23
2018-01-28T11:07:51.941Z,18.95
2018-01-28T11:10:18.801Z,23.77
2018-01-28T11:12:45.652Z,23.40
2018-01-28T11:15:12.533Z,23.87
2018-01-28T11:17:39.655Z,23.60
2018-01-28T11:20:06.542Z,21.87
2018-01-28T11:22:33.459Z,23.58
2018-01-28T11:25:00.317Z,30.15
2018-01-28T11:27:27.161Z,22.95
2018-01-28T11:29:54.049Z,25.23
2018-01-28T11:32:20.943Z,23.75
2018-01-28T11:34:47.832Z,23.70
2018-01-28T11:37:14.723Z,26.05
2018-01-28T11:39:41.590Z,22.52
2018-01-28T11:42:08.448Z,24.40
2018-01-28T11:44:35.293Z,22.40
2018-01-28T11:47:02.155Z,30.10
2018-01-28T11:49:29.021Z,28.23
2018-01-28T11:51:55.896Z,23.60
2018-01-28T11:54:22.782Z,21.48
2018-01-28T11:56:49.637Z,23.53
2018-01-28T11:59:16.488Z,25.50
2018-01-28T12:01:43.336Z,21.87
2018-01-28T12:04:10.225Z,26.05
2018-01-28T12:06:37.109Z,25.48
2018-01-28T12:09:04.001Z,30.27
2018-01-28T12:11:30.953Z,22.93
2018-01-28T12:13:57.830Z,24.90
2018-01-28T12:16:24.696Z,21.55
2018-01-28T12:18:51.564Z,27.25
2018-01-28T12:21:18.480Z,30.17
2018-01-28T12:23:45.321Z,27.20
2018-01-28T12:26:12.198Z,29.95
2018-01-28T12:28:39.088Z,23.25
2018-01-28T12:31:05.970Z,27.52
2018-01-28T12:33:32.852Z,28.12
2018-01-28T12:35:59.704Z,31.50
2018-01-28T12:38:26.556Z,23.85
2018-01-28T12:40:53.432Z,28.92
2018-01-28T12:43:20.324Z,36.63
2018-01-28T12:45:47.222Z,26.00
2018-01-28T12:48:14.182Z,28.62
2018-01-28T12:50:41.057Z,25.83
2018-01-28T12:53:07.962Z,26.20
2018-01-28T12:55:34.850Z,30.02
2018-01-28T12:58:01.712Z,25.33
2018-01-28T13:00:28.610Z,31.40
2018-01-28T13:02:55.509Z,31.62
2018-01-28T13:05:22.398Z,22.60
2018-01-28T13:07:49.316Z,33.00
2018-01-28T13:10:16.168Z,23.23
2018-01-28T13:12:43.020Z,28.75
2018-01-28T13:15:09.910Z,31.85
2018-01-28T13:17:36.810Z,26.25
2018-01-28T13:20:03.719Z,31.58
2018-01-28T13:22:30.624Z,24.35
2018-01-28T13:24:57.472Z,28.27
2018-01-28T13:27:24.381Z,23.50
2018-01-28T13:29:51.243Z,31.17
2018-01-28T13:32:18.158Z,29.60
2018-01-28T13:34:45.019Z,28.92
2018-01-28T13:37:11.902Z,26.40
2018-01-28T13:39:38.769Z,25.77
2018-01-28T13:42:05.614Z,22.70
2018-01-28T13:44:32.516Z,28.40
2018-01-28T13:46:59.402Z,26.35
2018-01-28T13:49:26.304Z,29.47
2018-01-28T13:51:53.176Z,26.42
2018-01-28T13:54:20.062Z,27.33
2018-01-28T13:56:46.953Z,26.20
2018-01-28T13:59:13.849Z,32.30
2018-01-28T14:01:40.710Z,27.90
2018-01-28T14:04:07.557Z,29.85
2018-01-28T14:06:34.446Z,23.33
2018-01-28T14:09:01.326Z,23.20
2018-01-28T14:11:28.216Z,34.13
2018-01-28T14:13:55.060Z,38.92
2018-01-28T14:16:21.938Z,32.63
2018-01-28T14:18:48.874Z,26.02
2018-01-28T14:21:15.724Z,31.05
2018-01-28T14:23:42.917Z,37.83
2018-01-28T14:26:09.811Z,33.55
2018-01-28T14:28:36.679Z,31.27
2018-01-28T14:31:03.552Z,31.33
2018-01-28T14:33:30.478Z,32.20
2018-01-28T14:35:57.391Z,31.00
2018-01-28T14:38:24.351Z,30.62
2018-01-28T14:40:51.196Z,30.15
2018-01-28T14:43:18.044Z,34.27
2018-01-28T14:45:44.912Z,34.00
2018-01-28T14:48:11.817Z,30.17
2018-01-28T14:50:38.740Z,31.80
2018-01-28T14:53:05.947Z,27.98
2018-01-28T14:55:32.866Z,28.58
2018-01-28T14:57:59.769Z,33.97
2018-01-28T15:00:26.658Z,30.17
2018-01-28T15:02:53.554Z,30.67
2018-01-28T15:05:20.429Z,31.80
2018-01-28T15:07:47.288Z,34.00
2018-01-28T15:10:14.161Z,30.98
2018-01-28T15:12:41.418Z,32.35
2018-01-28T15:15:08.281Z,33.55
2018-01-28T15:17:35.160Z,34.35
2018-01-28T15:20:02.004Z,28.15
2018-01-28T15:22:28.910Z,29.65
2018-01-28T15:24:55.785Z,28.10
2018-01-28T15:27:22.682Z,34.15
2018-01-28T15:29:49.533Z,26.15
2018-01-28T15:32:16.392Z,27.02
2018-01-28T15:34:43.287Z,36.85
2018-01-28T15:37:10.167Z,32.05
2018-01-28T15:39:37.072Z,29.63
2018-01-28T15:42:03.986Z,31.80
2018-01-28T15:44:30.885Z,24.65
2018-01-28T15:46:57.786Z,42.05
2018-01-28T15:49:25.501Z,26.93
2018-01-28T15:51:52.377Z,32.05
2018-01-28T15:54:19.293Z,32.85
2018-01-28T15:56:46.182Z,25.95
2018-01-28T15:59:13.163Z,27.83
2018-01-28T16:01:40.025Z,33.42
2018-01-28T16:04:06.975Z,27.08
2018-01-28T16:06:33.852Z,29.48
2018-01-28T16:09:00.749Z,25.70
2018-01-28T16:11:27.649Z,25.67
2018-01-28T16:13:54.774Z,33.33
2018-01-28T16:16:21.669Z,27.58
2018-01-28T16:18:48.587Z,32.85
2018-01-28T16:21:15.499Z,32.03
2018-01-28T16:23:42.382Z,27.87
2018-01-28T16:26:09.293Z,32.65
2018-01-28T16:28:36.209Z,34.40
2018-01-28T16:31:03.083Z,32.72
2018-01-28T16:33:30.003Z,38.17
2018-01-28T16:35:56.921Z,32.80
2018-01-28T16:38:24.576Z,40.38
2018-01-28T16:40:51.467Z,36.33
2018-01-28T16:43:18.375Z,40.60
2018-01-28T16:45:45.252Z,39.75
2018-01-28T16:48:12.134Z,37.63
2018-01-28T16:50:39.027Z,36.13
2018-01-28T16:53:05.954Z,32.80
2018-01-28T16:55:32.849Z,39.90
2018-01-28T16:57:59.737Z,40.25
2018-01-28T17:00:26.628Z,42.15
2018-01-28T17:02:53.483Z,39.63
2018-01-28T17:05:20.400Z,42.25
2018-01-28T17:07:47.256Z,42.28
2018-01-28T17:10:14.157Z,47.88
2018-01-28T17:12:41.029Z,42.85
2018-01-28T17:15:07.884Z,47.42
2018-01-28T17:17:34.785Z,41.07
2018-01-28T17:20:01.655Z,40.57
2018-01-28T17:22:28.508Z,41.45
2018-01-28T17:24:55.375Z,44.95
2018-01-28T17:27:22.232Z,36.97
2018-01-28T17:29:49.142Z,44.95
2018-01-28T17:32:15.996Z,51.80
2018-01-28T17:34:42.916Z,44.40
2018-01-28T17:37:09.818Z,46.10
2018-01-28T17:39:37.023Z,47.92
2018-01-28T17:42:03.981Z,48.15
2018-01-28T17:44:30.962Z,44.88
2018-01-28T17:46:57.906Z,44.58
2018-01-28T17:49:24.930Z,46.55
2018-01-28T17:51:51.840Z,41.92
2018-01-28T17:54:19.119Z,43.47
2018-01-28T17:56:46.012Z,41.10
2018-01-28T17:59:12.922Z,48.72
2018-01-28T18:01:39.834Z,44.72
2018-01-28T18:04:06.783Z,46.10
2018-01-28T18:06:33.662Z,43.83
2018-01-28T18:09:00.600Z,45.42
2018-01-28T18:11:27.505Z,40.70
2018-01-28T18:13:54.446Z,41.97
2018-01-28T18:16:21.370Z,41.47
2018-01-28T18:18:48.302Z,42.20
2018-01-28T18:21:15.201Z,39.55
2018-01-28T18:23:42.064Z,40.03
2018-01-28T18:26:08.945Z,42.38
2018-01-28T18:28:35.803Z,43.47
2018-01-28T18:31:02.677Z,42.53
2018-01-28T18:33:29.532Z,35.85
2018-01-28T18:35:56.773Z,38.97
2018-01-28T18:38:23.656Z,38.90
2018-01-28T18:40:50.504Z,40.30
2018-01-28T18:43:17.352Z,38.03
2018-01-28T18:45:44.259Z,41.53
2018-01-28T18:48:11.161Z,40.67
2018-01-28T18:50:38.033Z,41.88
2018-01-28T18:53:04.931Z,40.15
2018-01-28T18:55:31.805Z,38.13
2018-01-28T18:57:58.694Z,43.80
2018-01-28T19:00:25.544Z,41.00
2018-01-28T19:02:52.473Z,45.10
2018-01-28T19:05:19.325Z,42.63
2018-01-28T19:07:46.207Z,44.75
2018-01-28T19:10:13.052Z,40.95
2018-01-28T19:12:39.941Z,45.42
2018-01-28T19:15:06.848Z,43.65
2018-01-28T19:17:33.724Z,43.38
2018-01-28T19:20:00.607Z,43.13
2018-01-28T19:22:27.453Z,40.92
2018-01-28T19:24:54.333Z,45.47
2018-01-28T19:27:21.237Z,46.53
2018-01-28T19:29:48.153Z,41.03
2018-01-28T19:32:15.047Z,49.43
2018-01-28T19:34:42.240Z,42.92
2018-01-28T19:37:09.109Z,40.90
2018-01-28T19:39:36.047Z,42.80
2018-01-28T19:42:02.944Z,43.20
2018-01-28T19:44:29.799Z,42.10
2018-01-28T19:46:56.685Z,44.13
2018-01-28T19:49:23.613Z,42.95
2018-01-28T19:51:50.854Z,40.97
2018-01-28T19:54:17.778Z,46.23
2018-01-28T19:56:44.679Z,38.00
2018-01-28T19:59:11.573Z,39.60
2018-01-28T20:01:38.740Z,38.50
2018-01-28T20:04:05.884Z,38.30
2018-01-28T20:06:32.748Z,39.58
2018-01-28T20:08:59.596Z,38.27
2018-01-28T20:11:26.457Z,37.17
2018-01-28T20:13:53.374Z,36.72
2018-01-28T20:16:20.228Z,36.92
2018-01-28T20:18:47.140Z,36.13
2018-01-28T20:21:14.085Z,37.28
2018-01-28T20:23:40.981Z,38.35
2018-01-28T20:26:07.856Z,37.20
2018-01-28T20:28:34.737Z,37.33
2018-01-28T20:31:01.605Z,41.83
2018-01-28T20:33:28.468Z,36.47
2018-01-28T20:35:55.312Z,34.55
2018-01-28T20:38:22.176Z,36.17
2018-01-28T20:40:49.049Z,33.58
2018-01-28T20:43:16.196Z,35.63
2018-01-28T20:45:43.047Z,32.00
2018-01-28T20:48:09.940Z,35.25
2018-01-28T20:50:36.800Z,33.30
2018-01-28T20:53:03.986Z,32.38
2018-01-28T20:55:30.893Z,32.03
2018-01-28T20:57:57.790Z,37.03
2018-01-28T21:00:24.644Z,32.88
2018-01-28T21:02:51.549Z,32.58
2018-01-28T21:05:18.704Z,29.77
2018-01-28T21:07:45.605Z,30.70
2018-01-28T21:10:12.470Z,33.42
2018-01-28T21:12:39.314Z,30.93
2018-01-28T21:15:06.218Z,30.30
2018-01-28T21:17:33.134Z,29.20
2018-01-28T21:20:00.001Z,31.00
2018-01-28T21:22:26.865Z,30.92
2018-01-28T21:24:53.853Z,28.80
2018-01-28T21:27:20.746Z,30.30
2018-01-28T21:29:47.609Z,28.83
2018-01-28T21:32:14.461Z,30.00
2018-01-28T21:34:41.357Z,28.15
2018-01-28T21:37:08.253Z,28.60
2018-01-28T21:39:35.165Z,26.30
2018-01-28T21:42:02.047Z,28.00
2018-01-28T21:44:28.901Z,30.50
2018-01-28T21:46:56.069Z,26.83
2018-01-28T21:49:22.949Z,25.30
2018-01-28T21:51:49.932Z,26.50
2018-01-28T21:54:16.805Z,25.08
2018-01-28T21:56:43.717Z,27.30
2018-01-28T21:59:10.598Z,26.83
2018-01-28T22:01:37.502Z,25.12
2018-01-28T22:04:04.549Z,25.10
2018-01-28T22:06:31.404Z,25.08
2018-01-28T22:08:58.330Z,24.42
2018-01-28T22:11:25.190Z,24.10
2018-01-28T22:13:52.354Z,25.10
2018-01-28T22:16:19.338Z,24.27
2018-01-28T22:18:46.234Z,24.40
2018-01-28T22:21:13.138Z,25.30
2018-01-28T22:23:40.043Z,24.77
2018-01-28T22:26:07.301Z,24.20
2018-01-28T22:28:34.176Z,24.77
2018-01-28T22:31:01.059Z,25.10
2018-01-28T22:33:27.945Z,23.83
2018-01-28T22:35:54.792Z,23.20
2018-01-28T22:38:21.660Z,23.17
2018-01-28T22:40:48.565Z,24.60
2018-01-28T22:43:15.441Z,23.90
2018-01-28T22:45:42.350Z,24.10
2018-01-28T22:48:09.208Z,22.92
2018-01-28T22:50:36.117Z,22.90
2018-01-28T22:53:02.998Z,23.27
2018-01-28T22:55:29.956Z,23.80
2018-01-28T22:57:56.869Z,23.77
2018-01-28T23:00:23.718Z,27.23
2018-01-28T23:02:50.645Z,25.90
2018-01-28T23:05:17.488Z,23.40
2018-01-28T23:07:44.351Z,23.40
2018-01-28T23:10:11.208Z,23.40
2018-01-28T23:12:38.088Z,24.50
2018-01-28T23:15:04.961Z,23.60
2018-01-28T23:17:31.839Z,24.77
2018-01-28T23:19:58.741Z,24.08
2018-01-28T23:22:25.638Z,22.73
2018-01-28T23:24:52.550Z,24.20
2018-01-28T23:27:19.449Z,23.23
2018-01-28T23:29:46.337Z,23.23
2018-01-28T23:32:13.261Z,23.10
2018-01-28T23:34:40.185Z,22.50
2018-01-28T23:37:07.090Z,22.20
2018-01-28T23:39:33.964Z,22.83
2018-01-28T23:42:00.843Z,23.10
2018-01-28T23:44:27.734Z,23.25
2018-01-28T23:46:54.654Z,23.10
2018-01-28T23:49:21.508Z,23.00
2018-01-28T23:51:48.398Z,22.65
2018-01-28T23:54:15.264Z,22.48
2018-01-28T23:56:42.137Z,22.10
2018-01-28T23:59:09.391Z,22.60
